CheckWX is a tool to help pilots better visualize weather data.  It is not intended as a substitute for an official pre-flight weather briefing.

05:12:44 UTC

EGSS METAR
London Stansted Airport
London, United Kingdom
Current

23 mins ago

EGSS 240450Z AUTO VRB03KT 1700 BR NCD 02/02 Q1034
Observed
Feb-24 @ 04:50 UTC
Wind
  • Variable at 3 KTS
Visibility
1,706 meters
Flight Rules
IFR
Conditions
Mist
Cloud Levels
  • Clear skies
Temperature
C / 36°F
Dewpoint
C / 36°F
Humidity
100%
Altimeter
30.53" Hg
Pressure
1033.91 hPa
Previous

53 mins ago

EGSS 240420Z AUTO 04004KT 2600 BR NCD 02/02 Q1034
Observed
Feb-24 @ 04:20 UTC
Wind
  • 040° at 4 KTS
Visibility
2,607 meters
Flight Rules
IFR
Conditions
Mist
Cloud Levels
  • Clear skies
Temperature
C / 36°F
Dewpoint
C / 36°F
Humidity
100%
Altimeter
30.53" Hg
Pressure
1033.91 hPa
Previous

1 hour ago

EGSS 240350Z AUTO 32003KT 1700 BR NCD 02/02 Q1035
Observed
Feb-24 @ 03:50 UTC
Wind
  • 320° at 3 KTS
Visibility
1,706 meters
Flight Rules
IFR
Conditions
Mist
Cloud Levels
  • Clear skies
Temperature
C / 36°F
Dewpoint
C / 36°F
Humidity
100%
Altimeter
30.56" Hg
Pressure
1034.91 hPa